sensor_id;sensor_type;location;lat;lon;timestamp;temperature;humidity
5086;DHT22;4715;51.660;7.082;2022-09-09T00:01:49;17.10;99.90
5086;DHT22;4715;51.660;7.082;2022-09-09T00:04:15;17.10;99.90
5086;DHT22;4715;51.660;7.082;2022-09-09T00:06:45;17.00;99.90
5086;DHT22;4715;51.660;7.082;2022-09-09T00:09:12;16.90;99.90
5086;DHT22;4715;51.660;7.082;2022-09-09T00:11:40;16.90;99.90
5086;DHT22;4715;51.660;7.082;2022-09-09T00:14:10;16.80;99.90
5086;DHT22;4715;51.660;7.082;2022-09-09T00:16:36;16.80;99.90
5086;DHT22;4715;51.660;7.082;2022-09-09T00:19:05;16.80;99.90
5086;DHT22;4715;51.660;7.082;2022-09-09T00:21:33;16.70;99.90
5086;DHT22;4715;51.660;7.082;2022-09-09T00:23:55;16.80;99.90
5086;DHT22;4715;51.660;7.082;2022-09-09T00:26:23;16.80;99.90
5086;DHT22;4715;51.660;7.082;2022-09-09T00:28:55;16.80;99.90
5086;DHT22;4715;51.660;7.082;2022-09-09T00:31:22;16.80;99.90
5086;DHT22;4715;51.660;7.082;2022-09-09T00:33:44;16.80;99.90
5086;DHT22;4715;51.660;7.082;2022-09-09T00:36:12;16.80;99.90
5086;DHT22;4715;51.660;7.082;2022-09-09T00:38:39;16.80;99.90
5086;DHT22;4715;51.660;7.082;2022-09-09T00:41:07;16.80;99.90
5086;DHT22;4715;51.660;7.082;2022-09-09T00:43:32;16.80;99.90
5086;DHT22;4715;51.660;7.082;2022-09-09T00:46:13;16.80;99.90
5086;DHT22;4715;51.660;7.082;2022-09-09T00:48:46;16.80;99.90
5086;DHT22;4715;51.660;7.082;2022-09-09T00:51:15;16.80;99.90
5086;DHT22;4715;51.660;7.082;2022-09-09T00:53:58;16.80;99.90
5086;DHT22;4715;51.660;7.082;2022-09-09T00:56:30;16.80;99.90
5086;DHT22;4715;51.660;7.082;2022-09-09T00:59:04;16.70;99.90
5086;DHT22;4715;51.660;7.082;2022-09-09T01:01:27;16.70;99.90
5086;DHT22;4715;51.660;7.082;2022-09-09T01:03:53;16.70;99.90
5086;DHT22;4715;51.660;7.082;2022-09-09T01:06:18;16.70;99.90
5086;DHT22;4715;51.660;7.082;2022-09-09T01:08:57;16.70;99.90
5086;DHT22;4715;51.660;7.082;2022-09-09T01:11:24;16.70;99.90
5086;DHT22;4715;51.660;7.082;2022-09-09T01:13:52;16.70;99.90
5086;DHT22;4715;51.660;7.082;2022-09-09T01:16:16;16.60;99.90
5086;DHT22;4715;51.660;7.082;2022-09-09T01:18:45;16.60;99.90
5086;DHT22;4715;51.660;7.082;2022-09-09T01:21:16;16.60;99.90
5086;DHT22;4715;51.660;7.082;2022-09-09T01:24:03;16.60;99.90
5086;DHT22;4715;51.660;7.082;2022-09-09T01:26:30;16.60;99.90
5086;DHT22;4715;51.660;7.082;2022-09-09T01:28:54;16.60;99.90
5086;DHT22;4715;51.660;7.082;2022-09-09T01:31:19;16.60;99.90
5086;DHT22;4715;51.660;7.082;2022-09-09T01:33:41;16.60;99.90
5086;DHT22;4715;51.660;7.082;2022-09-09T01:36:05;16.50;99.90
5086;DHT22;4715;51.660;7.082;2022-09-09T01:38:30;16.50;99.90
5086;DHT22;4715;51.660;7.082;2022-09-09T01:40:53;16.50;99.90
5086;DHT22;4715;51.660;7.082;2022-09-09T01:43:17;16.50;99.90
5086;DHT22;4715;51.660;7.082;2022-09-09T01:45:41;16.50;99.90
5086;DHT22;4715;51.660;7.082;2022-09-09T01:48:04;16.50;99.90
5086;DHT22;4715;51.660;7.082;2022-09-09T01:50:26;16.50;99.90
5086;DHT22;4715;51.660;7.082;2022-09-09T01:52:50;16.50;99.90
5086;DHT22;4715;51.660;7.082;2022-09-09T01:55:13;16.50;99.90
5086;DHT22;4715;51.660;7.082;2022-09-09T01:57:41;16.50;99.90
5086;DHT22;4715;51.660;7.082;2022-09-09T02:00:09;16.60;99.90
5086;DHT22;4715;51.660;7.082;2022-09-09T02:02:36;16.60;99.90
5086;DHT22;4715;51.660;7.082;2022-09-09T02:05:10;16.60;99.90
5086;DHT22;4715;51.660;7.082;2022-09-09T02:07:38;16.60;99.90
5086;DHT22;4715;51.660;7.082;2022-09-09T02:10:09;16.50;99.90
5086;DHT22;4715;51.660;7.082;2022-09-09T02:12:31;16.50;99.90
5086;DHT22;4715;51.660;7.082;2022-09-09T02:14:57;16.50;99.90
5086;DHT22;4715;51.660;7.082;2022-09-09T02:17:26;16.60;99.90
5086;DHT22;4715;51.660;7.082;2022-09-09T02:19:53;16.60;99.90
5086;DHT22;4715;51.660;7.082;2022-09-09T02:22:20;16.70;99.90
5086;DHT22;4715;51.660;7.082;2022-09-09T02:24:44;16.70;99.90
5086;DHT22;4715;51.660;7.082;2022-09-09T02:27:08;16.70;99.90
5086;DHT22;4715;51.660;7.082;2022-09-09T02:29:33;16.70;99.90
5086;DHT22;4715;51.660;7.082;2022-09-09T02:31:58;16.70;99.90
5086;DHT22;4715;51.660;7.082;2022-09-09T02:34:25;16.80;99.90
5086;DHT22;4715;51.660;7.082;2022-09-09T02:36:49;16.80;99.90
5086;DHT22;4715;51.660;7.082;2022-09-09T02:39:12;16.80;99.90
5086;DHT22;4715;51.660;7.082;2022-09-09T02:41:36;16.90;99.90
5086;DHT22;4715;51.660;7.082;2022-09-09T02:44:00;16.80;99.90
5086;DHT22;4715;51.660;7.082;2022-09-09T02:46:34;16.90;99.90
5086;DHT22;4715;51.660;7.082;2022-09-09T02:49:00;16.90;99.90
5086;DHT22;4715;51.660;7.082;2022-09-09T02:51:31;16.90;99.90
5086;DHT22;4715;51.660;7.082;2022-09-09T02:54:01;16.90;99.90
5086;DHT22;4715;51.660;7.082;2022-09-09T02:56:28;16.80;99.90
5086;DHT22;4715;51.660;7.082;2022-09-09T02:58:52;16.80;99.90
5086;DHT22;4715;51.660;7.082;2022-09-09T03:01:14;16.90;99.90
5086;DHT22;4715;51.660;7.082;2022-09-09T03:03:38;16.90;99.90
5086;DHT22;4715;51.660;7.082;2022-09-09T03:06:02;16.90;99.90
5086;DHT22;4715;51.660;7.082;2022-09-09T03:08:25;16.90;99.90
5086;DHT22;4715;51.660;7.082;2022-09-09T03:10:47;17.00;99.90
5086;DHT22;4715;51.660;7.082;2022-09-09T03:13:10;17.00;99.90
5086;DHT22;4715;51.660;7.082;2022-09-09T03:15:34;17.00;99.90
5086;DHT22;4715;51.660;7.082;2022-09-09T03:17:56;17.10;99.90
5086;DHT22;4715;51.660;7.082;2022-09-09T03:20:18;17.10;99.90
5086;DHT22;4715;51.660;7.082;2022-09-09T03:22:40;17.10;99.90
5086;DHT22;4715;51.660;7.082;2022-09-09T03:25:03;17.10;99.90
5086;DHT22;4715;51.660;7.082;2022-09-09T03:27:26;17.10;99.90
5086;DHT22;4715;51.660;7.082;2022-09-09T03:29:47;17.00;99.90
5086;DHT22;4715;51.660;7.082;2022-09-09T03:32:12;17.10;99.90
5086;DHT22;4715;51.660;7.082;2022-09-09T03:34:34;17.00;99.90
5086;DHT22;4715;51.660;7.082;2022-09-09T03:36:55;17.00;99.90
5086;DHT22;4715;51.660;7.082;2022-09-09T03:39:17;17.00;99.90
5086;DHT22;4715;51.660;7.082;2022-09-09T03:41:40;16.90;99.90
5086;DHT22;4715;51.660;7.082;2022-09-09T03:44:03;16.90;99.90
5086;DHT22;4715;51.660;7.082;2022-09-09T03:46:26;16.90;99.90
5086;DHT22;4715;51.660;7.082;2022-09-09T03:48:48;16.90;99.90
5086;DHT22;4715;51.660;7.082;2022-09-09T03:51:10;16.90;99.90
5086;DHT22;4715;51.660;7.082;2022-09-09T03:53:32;16.90;99.90
5086;DHT22;4715;51.660;7.082;2022-09-09T03:55:56;16.90;99.90
5086;DHT22;4715;51.660;7.082;2022-09-09T03:58:22;16.80;99.90
5086;DHT22;4715;51.660;7.082;2022-09-09T04:00:52;16.80;99.90
5086;DHT22;4715;51.660;7.082;2022-09-09T04:03:14;16.80;99.90
5086;DHT22;4715;51.660;7.082;2022-09-09T04:05:36;16.80;99.90
5086;DHT22;4715;51.660;7.082;2022-09-09T04:08:00;16.90;99.90
5086;DHT22;4715;51.660;7.082;2022-09-09T04:10:22;16.90;99.90
5086;DHT22;4715;51.660;7.082;2022-09-09T04:12:43;16.90;99.90
5086;DHT22;4715;51.660;7.082;2022-09-09T04:15:09;16.90;99.90
5086;DHT22;4715;51.660;7.082;2022-09-09T04:17:31;16.90;99.90
5086;DHT22;4715;51.660;7.082;2022-09-09T04:19:53;16.90;99.90
5086;DHT22;4715;51.660;7.082;2022-09-09T04:22:15;16.80;99.90
5086;DHT22;4715;51.660;7.082;2022-09-09T04:24:37;16.90;99.90
5086;DHT22;4715;51.660;7.082;2022-09-09T04:26:59;16.80;99.90
5086;DHT22;4715;51.660;7.082;2022-09-09T04:29:21;16.90;99.90
5086;DHT22;4715;51.660;7.082;2022-09-09T04:31:44;16.80;99.90
5086;DHT22;4715;51.660;7.082;2022-09-09T04:34:05;16.80;99.90
5086;DHT22;4715;51.660;7.082;2022-09-09T04:36:34;16.80;99.90
5086;DHT22;4715;51.660;7.082;2022-09-09T04:38:56;16.90;99.90
5086;DHT22;4715;51.660;7.082;2022-09-09T04:41:18;16.80;99.90
5086;DHT22;4715;51.660;7.082;2022-09-09T04:43:40;16.90;99.90
5086;DHT22;4715;51.660;7.082;2022-09-09T04:46:02;16.80;99.90
5086;DHT22;4715;51.660;7.082;2022-09-09T04:48:25;16.90;99.90
5086;DHT22;4715;51.660;7.082;2022-09-09T04:50:55;16.90;99.90
5086;DHT22;4715;51.660;7.082;2022-09-09T04:53:17;17.00;99.90
5086;DHT22;4715;51.660;7.082;2022-09-09T04:55:39;16.90;99.90
5086;DHT22;4715;51.660;7.082;2022-09-09T04:58:03;17.00;99.90
5086;DHT22;4715;51.660;7.082;2022-09-09T05:00:25;17.00;99.90
5086;DHT22;4715;51.660;7.082;2022-09-09T05:02:48;17.00;99.90
5086;DHT22;4715;51.660;7.082;2022-09-09T05:05:11;17.00;99.90
5086;DHT22;4715;51.660;7.082;2022-09-09T05:07:33;17.00;99.90
5086;DHT22;4715;51.660;7.082;2022-09-09T05:10:02;17.00;99.90
5086;DHT22;4715;51.660;7.082;2022-09-09T05:12:28;16.90;99.90
5086;DHT22;4715;51.660;7.082;2022-09-09T05:14:51;17.00;99.90
5086;DHT22;4715;51.660;7.082;2022-09-09T05:17:15;16.90;99.90
5086;DHT22;4715;51.660;7.082;2022-09-09T05:19:38;16.90;99.90
5086;DHT22;4715;51.660;7.082;2022-09-09T05:22:02;16.90;99.90
5086;DHT22;4715;51.660;7.082;2022-09-09T05:24:25;16.90;99.90
5086;DHT22;4715;51.660;7.082;2022-09-09T05:26:48;16.90;99.90
5086;DHT22;4715;51.660;7.082;2022-09-09T05:29:12;17.00;99.90
5086;DHT22;4715;51.660;7.082;2022-09-09T05:31:35;16.90;99.90
5086;DHT22;4715;51.660;7.082;2022-09-09T05:33:57;17.00;99.90
5086;DHT22;4715;51.660;7.082;2022-09-09T05:36:21;17.00;99.90
5086;DHT22;4715;51.660;7.082;2022-09-09T05:38:44;17.00;99.90
5086;DHT22;4715;51.660;7.082;2022-09-09T05:41:07;17.10;99.90
5086;DHT22;4715;51.660;7.082;2022-09-09T05:43:30;17.10;99.90
5086;DHT22;4715;51.660;7.082;2022-09-09T05:46:01;17.10;99.90
5086;DHT22;4715;51.660;7.082;2022-09-09T05:48:23;17.20;99.90
5086;DHT22;4715;51.660;7.082;2022-09-09T05:50:55;17.20;99.90
5086;DHT22;4715;51.660;7.082;2022-09-09T05:53:17;17.20;99.90
5086;DHT22;4715;51.660;7.082;2022-09-09T05:55:40;17.30;99.90
5086;DHT22;4715;51.660;7.082;2022-09-09T05:58:02;17.30;99.90
5086;DHT22;4715;51.660;7.082;2022-09-09T06:00:24;17.30;99.90
5086;DHT22;4715;51.660;7.082;2022-09-09T06:02:51;17.30;99.90
5086;DHT22;4715;51.660;7.082;2022-09-09T06:05:14;17.40;99.90
5086;DHT22;4715;51.660;7.082;2022-09-09T06:07:35;17.40;99.90
5086;DHT22;4715;51.660;7.082;2022-09-09T06:09:58;17.40;99.90
5086;DHT22;4715;51.660;7.082;2022-09-09T06:12:21;17.40;99.90
5086;DHT22;4715;51.660;7.082;2022-09-09T06:14:43;17.50;99.90
5086;DHT22;4715;51.660;7.082;2022-09-09T06:17:06;17.40;99.90
5086;DHT22;4715;51.660;7.082;2022-09-09T06:19:27;17.40;99.90
5086;DHT22;4715;51.660;7.082;2022-09-09T06:21:51;17.40;99.90
5086;DHT22;4715;51.660;7.082;2022-09-09T06:24:12;17.50;99.90
5086;DHT22;4715;51.660;7.082;2022-09-09T06:26:39;17.50;99.90
5086;DHT22;4715;51.660;7.082;2022-09-09T06:29:03;17.50;99.90
5086;DHT22;4715;51.660;7.082;2022-09-09T06:31:27;17.50;99.90
5086;DHT22;4715;51.660;7.082;2022-09-09T06:33:51;17.50;99.90
5086;DHT22;4715;51.660;7.082;2022-09-09T06:36:16;17.60;99.90
5086;DHT22;4715;51.660;7.082;2022-09-09T06:38:38;17.60;99.90
5086;DHT22;4715;51.660;7.082;2022-09-09T06:41:00;17.60;99.90
5086;DHT22;4715;51.660;7.082;2022-09-09T06:43:22;17.60;99.90
5086;DHT22;4715;51.660;7.082;2022-09-09T06:45:53;17.70;99.90
5086;DHT22;4715;51.660;7.082;2022-09-09T06:48:14;17.70;99.90
5086;DHT22;4715;51.660;7.082;2022-09-09T06:50:36;17.70;99.90
5086;DHT22;4715;51.660;7.082;2022-09-09T06:52:58;17.80;99.90
5086;DHT22;4715;51.660;7.082;2022-09-09T06:55:20;17.70;99.90
5086;DHT22;4715;51.660;7.082;2022-09-09T06:57:42;17.80;99.90
5086;DHT22;4715;51.660;7.082;2022-09-09T07:00:05;17.80;99.90
5086;DHT22;4715;51.660;7.082;2022-09-09T07:02:28;17.80;99.90
5086;DHT22;4715;51.660;7.082;2022-09-09T07:04:50;17.80;99.90
5086;DHT22;4715;51.660;7.082;2022-09-09T07:07:14;17.80;99.90
5086;DHT22;4715;51.660;7.082;2022-09-09T07:09:36;17.80;99.90
5086;DHT22;4715;51.660;7.082;2022-09-09T07:11:58;17.90;99.90
5086;DHT22;4715;51.660;7.082;2022-09-09T07:14:20;17.90;99.90
5086;DHT22;4715;51.660;7.082;2022-09-09T07:16:43;18.00;99.90
5086;DHT22;4715;51.660;7.082;2022-09-09T07:19:07;18.00;99.90
5086;DHT22;4715;51.660;7.082;2022-09-09T07:21:30;18.10;99.90
5086;DHT22;4715;51.660;7.082;2022-09-09T07:23:53;18.20;99.90
5086;DHT22;4715;51.660;7.082;2022-09-09T07:26:17;18.30;99.90
5086;DHT22;4715;51.660;7.082;2022-09-09T07:28:41;18.30;99.90
5086;DHT22;4715;51.660;7.082;2022-09-09T07:31:04;18.40;99.90
5086;DHT22;4715;51.660;7.082;2022-09-09T07:33:27;18.50;99.90
5086;DHT22;4715;51.660;7.082;2022-09-09T07:35:52;18.50;99.90
5086;DHT22;4715;51.660;7.082;2022-09-09T07:38:15;18.50;99.90
5086;DHT22;4715;51.660;7.082;2022-09-09T07:40:37;18.50;99.90
5086;DHT22;4715;51.660;7.082;2022-09-09T07:43:01;18.50;99.90
5086;DHT22;4715;51.660;7.082;2022-09-09T07:45:24;18.40;99.90
5086;DHT22;4715;51.660;7.082;2022-09-09T07:47:46;18.40;99.90
5086;DHT22;4715;51.660;7.082;2022-09-09T07:50:09;18.40;99.90
5086;DHT22;4715;51.660;7.082;2022-09-09T07:52:34;18.40;99.90
5086;DHT22;4715;51.660;7.082;2022-09-09T07:54:56;18.40;99.90
5086;DHT22;4715;51.660;7.082;2022-09-09T07:57:19;18.40;99.90
5086;DHT22;4715;51.660;7.082;2022-09-09T07:59:43;18.50;99.90
5086;DHT22;4715;51.660;7.082;2022-09-09T08:02:08;18.50;99.90
5086;DHT22;4715;51.660;7.082;2022-09-09T08:04:30;18.50;99.90
5086;DHT22;4715;51.660;7.082;2022-09-09T08:06:56;18.50;99.90
5086;DHT22;4715;51.660;7.082;2022-09-09T08:09:21;18.60;99.90
5086;DHT22;4715;51.660;7.082;2022-09-09T08:11:48;18.70;99.90
5086;DHT22;4715;51.660;7.082;2022-09-09T08:14:12;18.70;99.90
5086;DHT22;4715;51.660;7.082;2022-09-09T08:16:35;18.70;99.90
5086;DHT22;4715;51.660;7.082;2022-09-09T08:18:58;18.60;99.90
5086;DHT22;4715;51.660;7.082;2022-09-09T08:21:22;18.60;99.90
5086;DHT22;4715;51.660;7.082;2022-09-09T08:23:45;18.50;99.90
5086;DHT22;4715;51.660;7.082;2022-09-09T08:26:11;18.50;99.90
5086;DHT22;4715;51.660;7.082;2022-09-09T08:28:33;18.40;99.90
5086;DHT22;4715;51.660;7.082;2022-09-09T08:30:55;18.40;99.90
5086;DHT22;4715;51.660;7.082;2022-09-09T08:33:19;18.40;99.90
5086;DHT22;4715;51.660;7.082;2022-09-09T08:35:50;18.30;99.90
5086;DHT22;4715;51.660;7.082;2022-09-09T08:38:12;18.40;99.90
5086;DHT22;4715;51.660;7.082;2022-09-09T08:40:38;18.40;99.90
5086;DHT22;4715;51.660;7.082;2022-09-09T08:43:06;18.40;99.90
5086;DHT22;4715;51.660;7.082;2022-09-09T08:45:31;18.40;99.90
5086;DHT22;4715;51.660;7.082;2022-09-09T08:48:20;18.50;99.90
5086;DHT22;4715;51.660;7.082;2022-09-09T08:50:49;18.60;99.90
5086;DHT22;4715;51.660;7.082;2022-09-09T08:53:16;18.70;99.90
5086;DHT22;4715;51.660;7.082;2022-09-09T08:55:43;18.80;99.90
5086;DHT22;4715;51.660;7.082;2022-09-09T08:58:12;18.90;99.90
5086;DHT22;4715;51.660;7.082;2022-09-09T09:00:43;18.90;99.90
5086;DHT22;4715;51.660;7.082;2022-09-09T09:03:13;19.00;99.90
5086;DHT22;4715;51.660;7.082;2022-09-09T09:05:44;19.00;99.90
5086;DHT22;4715;51.660;7.082;2022-09-09T09:08:17;19.10;99.90
5086;DHT22;4715;51.660;7.082;2022-09-09T09:10:46;19.10;99.90
5086;DHT22;4715;51.660;7.082;2022-09-09T09:13:15;19.20;99.90
5086;DHT22;4715;51.660;7.082;2022-09-09T09:15:38;19.30;99.90
5086;DHT22;4715;51.660;7.082;2022-09-09T09:18:00;19.40;99.90
5086;DHT22;4715;51.660;7.082;2022-09-09T09:20:35;19.60;99.90
5086;DHT22;4715;51.660;7.082;2022-09-09T09:23:02;19.80;99.90
5086;DHT22;4715;51.660;7.082;2022-09-09T09:25:31;20.00;99.90
5086;DHT22;4715;51.660;7.082;2022-09-09T09:28:03;20.20;99.90
5086;DHT22;4715;51.660;7.082;2022-09-09T09:30:35;20.30;99.90
5086;DHT22;4715;51.660;7.082;2022-09-09T09:33:01;20.50;99.90
5086;DHT22;4715;51.660;7.082;2022-09-09T09:35:25;20.50;99.90
5086;DHT22;4715;51.660;7.082;2022-09-09T09:37:48;20.60;99.90
5086;DHT22;4715;51.660;7.082;2022-09-09T09:40:10;20.70;99.90
5086;DHT22;4715;51.660;7.082;2022-09-09T09:42:32;20.70;99.90
5086;DHT22;4715;51.660;7.082;2022-09-09T09:44:54;20.60;99.90
5086;DHT22;4715;51.660;7.082;2022-09-09T09:47:19;20.50;99.90
5086;DHT22;4715;51.660;7.082;2022-09-09T09:49:51;20.50;99.90
5086;DHT22;4715;51.660;7.082;2022-09-09T09:52:17;20.40;99.90
5086;DHT22;4715;51.660;7.082;2022-09-09T09:54:42;20.30;99.90
5086;DHT22;4715;51.660;7.082;2022-09-09T09:57:09;20.30;99.90
5086;DHT22;4715;51.660;7.082;2022-09-09T09:59:35;20.20;99.90
5086;DHT22;4715;51.660;7.082;2022-09-09T10:02:21;20.20;99.90
5086;DHT22;4715;51.660;7.082;2022-09-09T10:04:46;20.20;99.90
5086;DHT22;4715;51.660;7.082;2022-09-09T10:07:11;20.20;99.90
5086;DHT22;4715;51.660;7.082;2022-09-09T10:09:33;20.30;99.90
5086;DHT22;4715;51.660;7.082;2022-09-09T10:12:10;20.40;99.90
5086;DHT22;4715;51.660;7.082;2022-09-09T10:14:40;20.40;99.90
5086;DHT22;4715;51.660;7.082;2022-09-09T10:17:15;20.40;99.90
5086;DHT22;4715;51.660;7.082;2022-09-09T10:19:49;20.40;99.90
5086;DHT22;4715;51.660;7.082;2022-09-09T10:22:25;20.40;99.90
5086;DHT22;4715;51.660;7.082;2022-09-09T10:27:40;20.40;99.90
5086;DHT22;4715;51.660;7.082;2022-09-09T10:30:14;20.30;99.90
5086;DHT22;4715;51.660;7.082;2022-09-09T10:32:42;20.30;99.90
5086;DHT22;4715;51.660;7.082;2022-09-09T10:35:12;20.40;99.90
5086;DHT22;4715;51.660;7.082;2022-09-09T10:37:53;20.40;99.90
5086;DHT22;4715;51.660;7.082;2022-09-09T10:40:30;20.40;99.90
5086;DHT22;4715;51.660;7.082;2022-09-09T10:42:56;20.40;99.90
5086;DHT22;4715;51.660;7.082;2022-09-09T10:45:26;20.40;99.90
5086;DHT22;4715;51.660;7.082;2022-09-09T10:48:11;20.40;99.90
5086;DHT22;4715;51.660;7.082;2022-09-09T10:50:55;20.40;99.90
5086;DHT22;4715;51.660;7.082;2022-09-09T10:53:28;20.60;99.90
5086;DHT22;4715;51.660;7.082;2022-09-09T10:55:59;20.90;99.90
5086;DHT22;4715;51.660;7.082;2022-09-09T10:58:28;21.10;99.90
5086;DHT22;4715;51.660;7.082;2022-09-09T11:00:56;21.30;99.90
5086;DHT22;4715;51.660;7.082;2022-09-09T11:03:22;21.50;99.90
5086;DHT22;4715;51.660;7.082;2022-09-09T11:05:50;21.50;99.90
5086;DHT22;4715;51.660;7.082;2022-09-09T11:08:17;21.40;99.90
5086;DHT22;4715;51.660;7.082;2022-09-09T11:10:42;21.20;99.90
5086;DHT22;4715;51.660;7.082;2022-09-09T11:13:11;21.10;99.90
5086;DHT22;4715;51.660;7.082;2022-09-09T11:15:39;21.00;99.90
5086;DHT22;4715;51.660;7.082;2022-09-09T11:18:04;20.90;99.90
5086;DHT22;4715;51.660;7.082;2022-09-09T11:20:28;20.80;99.90
5086;DHT22;4715;51.660;7.082;2022-09-09T11:22:55;20.70;99.90
5086;DHT22;4715;51.660;7.082;2022-09-09T11:25:22;20.60;99.90
5086;DHT22;4715;51.660;7.082;2022-09-09T11:27:56;20.60;99.90
5086;DHT22;4715;51.660;7.082;2022-09-09T11:30:22;20.50;99.90
5086;DHT22;4715;51.660;7.082;2022-09-09T11:35:47;20.50;99.90
5086;DHT22;4715;51.660;7.082;2022-09-09T11:38:20;20.50;99.90
5086;DHT22;4715;51.660;7.082;2022-09-09T11:40:44;20.50;99.90
5086;DHT22;4715;51.660;7.082;2022-09-09T11:43:10;20.50;99.90
5086;DHT22;4715;51.660;7.082;2022-09-09T11:45:34;20.60;99.90
5086;DHT22;4715;51.660;7.082;2022-09-09T11:47:57;20.60;99.90
5086;DHT22;4715;51.660;7.082;2022-09-09T11:50:33;20.60;99.90
5086;DHT22;4715;51.660;7.082;2022-09-09T11:53:20;20.60;99.90
5086;DHT22;4715;51.660;7.082;2022-09-09T11:55:43;20.60;99.90
5086;DHT22;4715;51.660;7.082;2022-09-09T11:58:13;20.60;99.90
5086;DHT22;4715;51.660;7.082;2022-09-09T12:00:38;20.60;99.90
5086;DHT22;4715;51.660;7.082;2022-09-09T12:03:02;20.60;99.90
5086;DHT22;4715;51.660;7.082;2022-09-09T12:05:35;20.60;99.90
5086;DHT22;4715;51.660;7.082;2022-09-09T12:07:59;20.70;99.90
5086;DHT22;4715;51.660;7.082;2022-09-09T12:10:27;20.70;99.90
5086;DHT22;4715;51.660;7.082;2022-09-09T12:12:52;20.70;99.90
5086;DHT22;4715;51.660;7.082;2022-09-09T12:15:24;20.70;99.90
5086;DHT22;4715;51.660;7.082;2022-09-09T12:17:50;20.80;99.90
5086;DHT22;4715;51.660;7.082;2022-09-09T12:20:14;20.90;99.90
5086;DHT22;4715;51.660;7.082;2022-09-09T12:22:47;21.10;99.90
5086;DHT22;4715;51.660;7.082;2022-09-09T12:25:21;21.30;99.90
5086;DHT22;4715;51.660;7.082;2022-09-09T12:27:57;21.40;99.90
5086;DHT22;4715;51.660;7.082;2022-09-09T12:30:21;21.30;99.90
5086;DHT22;4715;51.660;7.082;2022-09-09T12:32:47;21.20;99.90
5086;DHT22;4715;51.660;7.082;2022-09-09T12:35:11;21.10;99.90
5086;DHT22;4715;51.660;7.082;2022-09-09T12:37:35;21.10;99.90
5086;DHT22;4715;51.660;7.082;2022-09-09T12:39:59;21.00;99.90
5086;DHT22;4715;51.660;7.082;2022-09-09T12:42:23;21.00;99.90
5086;DHT22;4715;51.660;7.082;2022-09-09T12:45:16;21.00;99.90
5086;DHT22;4715;51.660;7.082;2022-09-09T12:47:41;21.00;99.90
5086;DHT22;4715;51.660;7.082;2022-09-09T12:50:05;21.00;99.90
5086;DHT22;4715;51.660;7.082;2022-09-09T12:52:30;20.90;99.90
5086;DHT22;4715;51.660;7.082;2022-09-09T12:54:53;20.80;99.90
5086;DHT22;4715;51.660;7.082;2022-09-09T12:57:16;20.70;99.90
5086;DHT22;4715;51.660;7.082;2022-09-09T12:59:39;20.70;99.90
5086;DHT22;4715;51.660;7.082;2022-09-09T13:02:16;20.70;99.90
5086;DHT22;4715;51.660;7.082;2022-09-09T13:04:39;20.60;99.90
5086;DHT22;4715;51.660;7.082;2022-09-09T13:07:07;20.50;99.90
5086;DHT22;4715;51.660;7.082;2022-09-09T13:09:30;20.50;99.90
5086;DHT22;4715;51.660;7.082;2022-09-09T13:11:55;20.50;99.90
5086;DHT22;4715;51.660;7.082;2022-09-09T13:14:23;20.50;99.90
5086;DHT22;4715;51.660;7.082;2022-09-09T13:16:55;20.30;99.90
5086;DHT22;4715;51.660;7.082;2022-09-09T13:19:19;19.70;99.90
5086;DHT22;4715;51.660;7.082;2022-09-09T13:21:42;19.10;99.90
5086;DHT22;4715;51.660;7.082;2022-09-09T13:24:05;18.60;99.90
5086;DHT22;4715;51.660;7.082;2022-09-09T13:26:28;18.30;99.90
5086;DHT22;4715;51.660;7.082;2022-09-09T13:28:51;18.00;99.90
5086;DHT22;4715;51.660;7.082;2022-09-09T13:31:20;17.90;99.90
5086;DHT22;4715;51.660;7.082;2022-09-09T13:33:43;17.80;99.90
5086;DHT22;4715;51.660;7.082;2022-09-09T13:36:08;17.80;99.90
5086;DHT22;4715;51.660;7.082;2022-09-09T13:38:32;17.70;99.90
5086;DHT22;4715;51.660;7.082;2022-09-09T13:40:57;17.70;99.90
5086;DHT22;4715;51.660;7.082;2022-09-09T13:43:22;17.70;99.90
5086;DHT22;4715;51.660;7.082;2022-09-09T13:45:53;17.60;99.90
5086;DHT22;4715;51.660;7.082;2022-09-09T13:48:18;17.60;99.90
5086;DHT22;4715;51.660;7.082;2022-09-09T13:50:40;17.60;99.90
5086;DHT22;4715;51.660;7.082;2022-09-09T13:53:04;17.60;99.90
5086;DHT22;4715;51.660;7.082;2022-09-09T13:55:27;17.60;99.90
5086;DHT22;4715;51.660;7.082;2022-09-09T13:57:53;17.70;99.90
5086;DHT22;4715;51.660;7.082;2022-09-09T14:00:16;17.90;99.90
5086;DHT22;4715;51.660;7.082;2022-09-09T14:02:39;18.00;99.90
5086;DHT22;4715;51.660;7.082;2022-09-09T14:05:01;18.30;99.90
5086;DHT22;4715;51.660;7.082;2022-09-09T14:07:24;18.80;99.90
5086;DHT22;4715;51.660;7.082;2022-09-09T14:09:48;19.20;99.90
5086;DHT22;4715;51.660;7.082;2022-09-09T14:12:13;19.40;99.90
5086;DHT22;4715;51.660;7.082;2022-09-09T14:14:39;19.40;99.90
5086;DHT22;4715;51.660;7.082;2022-09-09T14:17:02;19.40;99.90
5086;DHT22;4715;51.660;7.082;2022-09-09T14:19:24;19.50;99.90
5086;DHT22;4715;51.660;7.082;2022-09-09T14:21:46;19.70;99.90
5086;DHT22;4715;51.660;7.082;2022-09-09T14:24:09;20.10;99.90
5086;DHT22;4715;51.660;7.082;2022-09-09T14:26:32;20.50;99.90
5086;DHT22;4715;51.660;7.082;2022-09-09T14:28:54;21.00;99.90
5086;DHT22;4715;51.660;7.082;2022-09-09T14:31:16;21.30;99.90
5086;DHT22;4715;51.660;7.082;2022-09-09T14:33:38;21.70;99.90
5086;DHT22;4715;51.660;7.082;2022-09-09T14:36:02;22.30;99.90
5086;DHT22;4715;51.660;7.082;2022-09-09T14:38:25;22.80;99.90
5086;DHT22;4715;51.660;7.082;2022-09-09T14:40:50;23.20;99.90
5086;DHT22;4715;51.660;7.082;2022-09-09T14:43:13;23.50;99.90
5086;DHT22;4715;51.660;7.082;2022-09-09T14:45:35;23.80;99.90
5086;DHT22;4715;51.660;7.082;2022-09-09T14:47:58;23.60;99.90
5086;DHT22;4715;51.660;7.082;2022-09-09T14:50:21;23.20;99.90
5086;DHT22;4715;51.660;7.082;2022-09-09T14:52:43;22.70;99.90
5086;DHT22;4715;51.660;7.082;2022-09-09T14:55:07;22.20;99.90
5086;DHT22;4715;51.660;7.082;2022-09-09T14:57:29;21.80;99.90
5086;DHT22;4715;51.660;7.082;2022-09-09T14:59:52;21.50;99.90
5086;DHT22;4715;51.660;7.082;2022-09-09T15:02:14;21.20;99.90
5086;DHT22;4715;51.660;7.082;2022-09-09T15:04:36;21.00;99.90
5086;DHT22;4715;51.660;7.082;2022-09-09T15:06:58;20.80;99.90
5086;DHT22;4715;51.660;7.082;2022-09-09T15:09:20;20.60;99.90
5086;DHT22;4715;51.660;7.082;2022-09-09T15:11:43;20.40;99.90
5086;DHT22;4715;51.660;7.082;2022-09-09T15:14:06;20.30;99.90
5086;DHT22;4715;51.660;7.082;2022-09-09T15:16:30;20.10;99.90
5086;DHT22;4715;51.660;7.082;2022-09-09T15:18:54;19.70;99.90
5086;DHT22;4715;51.660;7.082;2022-09-09T15:21:18;19.40;99.90
5086;DHT22;4715;51.660;7.082;2022-09-09T15:23:45;19.20;99.90
5086;DHT22;4715;51.660;7.082;2022-09-09T15:26:08;19.00;99.90
5086;DHT22;4715;51.660;7.082;2022-09-09T15:28:31;18.70;99.90
5086;DHT22;4715;51.660;7.082;2022-09-09T15:30:55;18.50;99.90
5086;DHT22;4715;51.660;7.082;2022-09-09T15:33:21;18.20;99.90
5086;DHT22;4715;51.660;7.082;2022-09-09T15:35:45;18.00;99.90
5086;DHT22;4715;51.660;7.082;2022-09-09T15:38:07;17.80;99.90
5086;DHT22;4715;51.660;7.082;2022-09-09T15:40:31;17.60;99.90
5086;DHT22;4715;51.660;7.082;2022-09-09T15:42:54;17.50;99.90
5086;DHT22;4715;51.660;7.082;2022-09-09T15:45:19;17.40;99.90
5086;DHT22;4715;51.660;7.082;2022-09-09T15:47:42;17.40;99.90
5086;DHT22;4715;51.660;7.082;2022-09-09T15:50:07;17.40;99.90
5086;DHT22;4715;51.660;7.082;2022-09-09T15:52:30;17.50;99.90
5086;DHT22;4715;51.660;7.082;2022-09-09T15:54:53;17.50;99.90
5086;DHT22;4715;51.660;7.082;2022-09-09T15:57:15;17.60;99.90